createdAt,value
2018-12-15T00:00:49.810Z,95.07
2018-12-15T00:01:49.791Z,99.99
2018-12-15T00:02:49.771Z,98.10
2018-12-15T00:03:49.753Z,99.90
2018-12-15T00:04:49.735Z,99.99
2018-12-15T00:05:49.717Z,99.99
2018-12-15T00:06:49.708Z,98.20
2018-12-15T00:07:49.680Z,96.59
2018-12-15T00:08:49.663Z,97.72
2018-12-15T00:09:49.646Z,93.47
2018-12-15T00:10:49.629Z,92.99
2018-12-15T00:11:49.610Z,95.93
2018-12-15T00:12:49.593Z,97.82
2018-12-15T00:13:49.578Z,96.21
2018-12-15T00:14:49.556Z,96.12
2018-12-15T00:15:49.538Z,93.85
2018-12-15T00:16:49.521Z,95.83
2018-12-15T00:17:49.501Z,98.48
2018-12-15T00:18:49.487Z,95.36
2018-12-15T00:19:49.468Z,93.18
2018-12-15T00:20:49.449Z,91.67
2018-12-15T00:21:49.431Z,92.14
2018-12-15T00:22:49.413Z,91.01
2018-12-15T00:23:49.393Z,91.20
2018-12-15T00:24:49.377Z,91.39
2018-12-15T00:25:49.360Z,91.67
2018-12-15T00:26:49.342Z,92.71
2018-12-15T00:27:49.323Z,92.61
2018-12-15T00:28:49.306Z,94.04
2018-12-15T00:29:49.287Z,92.71
2018-12-15T00:30:49.269Z,92.90
2018-12-15T00:31:49.252Z,92.80
2018-12-15T00:32:49.234Z,95.64
2018-12-15T00:33:49.216Z,95.83
2018-12-15T00:34:49.197Z,93.56
2018-12-15T00:35:49.178Z,93.37
2018-12-15T00:36:49.162Z,92.43
2018-12-15T00:37:49.142Z,93.47
2018-12-15T00:38:49.125Z,94.79
2018-12-15T00:39:49.105Z,95.74
2018-12-15T00:40:49.087Z,94.51
2018-12-15T00:41:49.069Z,92.80
2018-12-15T00:42:49.052Z,92.43
2018-12-15T00:43:49.033Z,94.98
2018-12-15T00:44:49.015Z,95.26
2018-12-15T00:45:48.996Z,94.13
2018-12-15T00:46:48.980Z,94.60
2018-12-15T00:47:48.959Z,93.28
2018-12-15T00:48:48.945Z,91.77
2018-12-15T00:49:48.923Z,92.14
2018-12-15T00:50:48.907Z,92.80
2018-12-15T00:51:48.891Z,92.52
2018-12-15T00:52:48.870Z,92.14
2018-12-15T00:53:48.850Z,92.76
2018-12-15T00:54:48.834Z,94.51
2018-12-15T00:55:48.817Z,93.66
2018-12-15T00:56:48.796Z,93.47
2018-12-15T00:57:48.779Z,93.51
2018-12-15T00:58:48.761Z,93.42
2018-12-15T00:59:48.746Z,93.99
2018-12-15T01:00:48.723Z,95.12
2018-12-15T01:01:48.706Z,94.08
2018-12-15T01:02:48.686Z,94.84
2018-12-15T01:03:48.670Z,95.50
2018-12-15T01:04:48.650Z,93.70
2018-12-15T01:05:48.632Z,93.23
2018-12-15T01:06:48.617Z,93.99
2018-12-15T01:07:48.595Z,93.61
2018-12-15T01:08:48.578Z,94.18
2018-12-15T01:09:48.559Z,95.97
2018-12-15T01:10:48.542Z,95.31
2018-12-15T01:11:48.520Z,94.93
2018-12-15T01:12:48.503Z,94.27
2018-12-15T01:13:48.483Z,95.03
2018-12-15T01:14:48.465Z,94.27
2018-12-15T01:15:48.446Z,93.61
2018-12-15T01:16:48.430Z,93.80
2018-12-15T01:17:48.411Z,95.03
2018-12-15T01:18:48.396Z,94.84
2018-12-15T01:19:48.373Z,96.45
2018-12-15T01:20:48.356Z,95.21
2018-12-15T01:21:48.338Z,95.03
2018-12-15T01:22:48.319Z,94.84
2018-12-15T01:23:48.300Z,94.74
2018-12-15T01:24:48.282Z,94.27
2018-12-15T01:25:48.262Z,94.42
2018-12-15T01:26:48.246Z,94.51
2018-12-15T01:27:48.224Z,94.32
2018-12-15T01:28:48.208Z,93.80
2018-12-15T01:29:48.189Z,93.42
2018-12-15T01:30:48.173Z,92.66
2018-12-15T01:31:48.151Z,94.65
2018-12-15T01:32:48.132Z,93.99
2018-12-15T01:33:48.115Z,94.46
2018-12-15T01:34:48.099Z,95.03
2018-12-15T01:35:48.077Z,94.27
2018-12-15T01:36:48.059Z,94.37
2018-12-15T01:37:48.041Z,94.93
2018-12-15T01:38:48.023Z,94.74
2018-12-15T01:39:48.041Z,96.35
2018-12-15T01:40:47.986Z,96.35
2018-12-15T01:41:47.973Z,96.40
2018-12-15T01:42:47.950Z,95.50
2018-12-15T01:43:47.932Z,95.21
2018-12-15T01:44:47.911Z,94.93
2018-12-15T01:45:47.892Z,94.37
2018-12-15T01:46:47.882Z,94.27
2018-12-15T01:47:47.856Z,95.31
2018-12-15T01:48:47.838Z,94.74
2018-12-15T01:49:47.820Z,94.74
2018-12-15T01:50:47.803Z,94.65
2018-12-15T01:51:47.780Z,94.74
2018-12-15T01:52:47.762Z,94.27
2018-12-15T01:53:47.744Z,94.37
2018-12-15T01:54:47.728Z,95.59
2018-12-15T01:55:47.708Z,98.43
2018-12-15T01:56:47.688Z,98.81
2018-12-15T01:57:47.670Z,99.09
2018-12-15T01:58:47.653Z,99.24
2018-12-15T01:59:47.632Z,98.10
2018-12-15T02:00:47.613Z,99.99
2018-12-15T02:01:47.597Z,99.99
2018-12-15T02:02:47.577Z,98.96
2018-12-15T02:03:47.559Z,96.40
2018-12-15T02:04:47.540Z,95.45
2018-12-15T02:05:47.522Z,94.42
2018-12-15T02:06:47.502Z,95.36
2018-12-15T02:07:47.483Z,94.51
2018-12-15T02:08:47.467Z,94.89
2018-12-15T02:09:47.448Z,95.36
2018-12-15T02:10:47.430Z,96.31
2018-12-15T02:11:47.411Z,99.05
2018-12-15T02:12:47.391Z,99.62
2018-12-15T02:13:47.373Z,98.77
2018-12-15T02:14:47.357Z,97.25
2018-12-15T02:15:47.335Z,98.10
2018-12-15T02:16:47.319Z,94.98
2018-12-15T02:17:47.300Z,94.60
2018-12-15T02:18:47.284Z,94.51
2018-12-15T02:19:47.264Z,94.51
2018-12-15T02:20:47.246Z,95.45
2018-12-15T02:21:47.225Z,98.10
2018-12-15T02:22:47.211Z,95.74
2018-12-15T02:23:47.191Z,94.51
2018-12-15T02:24:47.171Z,95.93
2018-12-15T02:25:47.153Z,95.36
2018-12-15T02:26:47.135Z,96.50
2018-12-15T02:27:47.115Z,95.93
2018-12-15T02:28:47.096Z,97.16
2018-12-15T02:29:47.079Z,96.50
2018-12-15T02:30:47.727Z,99.99
2018-12-15T02:31:47.043Z,99.99
2018-12-15T02:32:47.025Z,97.44
2018-12-15T02:33:47.006Z,96.69
2018-12-15T02:34:46.988Z,99.62
2018-12-15T02:35:46.971Z,99.71
2018-12-15T02:36:46.953Z,98.67
2018-12-15T02:37:46.931Z,96.50
2018-12-15T02:38:46.916Z,94.42
2018-12-15T02:39:46.894Z,98.29
2018-12-15T02:40:46.876Z,97.63
2018-12-15T02:41:47.375Z,95.55
2018-12-15T02:42:46.840Z,98.86
2018-12-15T02:43:46.830Z,99.99
2018-12-15T02:44:46.804Z,98.10
2018-12-15T02:45:46.788Z,97.06
2018-12-15T02:46:46.767Z,95.55
2018-12-15T02:47:46.750Z,94.89
2018-12-15T02:48:46.734Z,94.13
2018-12-15T02:49:46.713Z,96.21
2018-12-15T02:50:46.694Z,95.55
2018-12-15T02:51:46.676Z,96.02
2018-12-15T02:52:46.657Z,96.59
2018-12-15T02:53:46.641Z,97.25
2018-12-15T02:54:46.620Z,97.44
2018-12-15T02:55:46.606Z,95.17
2018-12-15T02:56:46.585Z,96.12
2018-12-15T02:57:46.567Z,99.99
2018-12-15T02:58:46.547Z,97.72
2018-12-15T02:59:46.547Z,97.82
2018-12-15T03:00:46.518Z,95.36
2018-12-15T03:01:46.495Z,94.51
2018-12-15T03:02:46.476Z,94.79
2018-12-15T03:03:46.462Z,95.83
2018-12-15T03:04:46.441Z,95.36
2018-12-15T03:05:46.423Z,95.93
2018-12-15T03:06:46.404Z,94.60
2018-12-15T03:07:46.387Z,96.40
2018-12-15T03:08:46.364Z,97.06
2018-12-15T03:09:46.350Z,94.42
2018-12-15T03:10:46.330Z,96.50
2018-12-15T03:11:46.311Z,94.51
2018-12-15T03:12:46.292Z,97.16
2018-12-15T03:13:46.274Z,94.98
2018-12-15T03:14:46.259Z,94.42
2018-12-15T03:15:46.240Z,94.04
2018-12-15T03:16:46.218Z,94.60
2018-12-15T03:17:48.997Z,93.47
2018-12-15T03:18:46.184Z,93.85
2018-12-15T03:19:46.165Z,94.51
2018-12-15T03:20:46.147Z,94.04
2018-12-15T03:21:46.129Z,94.70
2018-12-15T03:22:46.111Z,94.70
2018-12-15T03:23:46.092Z,93.85
2018-12-15T03:24:46.074Z,95.31
2018-12-15T03:25:46.057Z,95.50
2018-12-15T03:26:46.036Z,96.40
2018-12-15T03:27:46.018Z,95.50
2018-12-15T03:28:45.999Z,94.46
2018-12-15T03:29:45.981Z,94.46
2018-12-15T03:30:45.973Z,94.37
2018-12-15T03:31:45.944Z,94.84
2018-12-15T03:32:45.935Z,96.07
2018-12-15T03:33:45.916Z,96.35
2018-12-15T03:34:45.894Z,96.83
2018-12-15T03:35:45.872Z,95.03
2018-12-15T03:36:45.855Z,94.65
2018-12-15T03:37:45.833Z,94.18
2018-12-15T03:38:45.816Z,95.03
2018-12-15T03:39:45.801Z,94.93
2018-12-15T03:40:45.779Z,94.65
2018-12-15T03:41:45.760Z,94.46
2018-12-15T03:42:45.752Z,95.03
2018-12-15T03:43:45.723Z,95.78
2018-12-15T03:44:45.705Z,96.92
2018-12-15T03:45:45.686Z,97.49
2018-12-15T03:46:45.667Z,95.97
2018-12-15T03:47:45.759Z,95.50
2018-12-15T03:48:45.631Z,95.97
2018-12-15T03:49:45.613Z,98.10
2018-12-15T03:50:45.596Z,97.11
2018-12-15T03:51:45.574Z,97.77
2018-12-15T03:52:45.557Z,98.43
2018-12-15T03:53:45.538Z,95.88
2018-12-15T03:54:45.520Z,95.78
2018-12-15T03:55:45.506Z,96.50
2018-12-15T03:56:45.481Z,96.78
2018-12-15T03:57:45.462Z,99.80
2018-12-15T03:58:45.445Z,99.43
2018-12-15T03:59:45.426Z,97.82
2018-12-15T04:00:45.409Z,97.44
2018-12-15T04:01:45.393Z,96.40
2018-12-15T04:02:45.371Z,96.69
2018-12-15T04:03:45.352Z,98.20
2018-12-15T04:04:45.335Z,98.01
2018-12-15T04:05:45.316Z,95.93
2018-12-15T04:06:45.299Z,97.06
2018-12-15T04:07:45.280Z,98.86
2018-12-15T04:08:45.263Z,96.59
2018-12-15T04:09:45.243Z,95.36
2018-12-15T04:10:45.224Z,94.79
2018-12-15T04:11:45.205Z,94.04
2018-12-15T04:12:45.401Z,95.55
2018-12-15T04:13:45.208Z,95.74
2018-12-15T04:14:45.154Z,96.50
2018-12-15T04:15:45.132Z,95.55
2018-12-15T04:16:45.115Z,96.40
2018-12-15T04:17:45.096Z,97.82
2018-12-15T04:18:45.078Z,95.64
2018-12-15T04:19:45.058Z,94.23
2018-12-15T04:20:45.040Z,95.55
2018-12-15T04:21:45.022Z,96.69
2018-12-15T04:22:45.006Z,96.40
2018-12-15T04:23:44.985Z,99.62
2018-12-15T04:24:44.967Z,99.90
2018-12-15T04:25:44.949Z,96.40
2018-12-15T04:26:44.932Z,95.55
2018-12-15T04:27:44.914Z,95.55
2018-12-15T04:28:44.893Z,96.31
2018-12-15T04:29:44.876Z,95.26
2018-12-15T04:30:44.858Z,94.79
2018-12-15T04:31:44.839Z,94.70
2018-12-15T04:32:45.382Z,95.93
2018-12-15T04:33:44.804Z,96.69
2018-12-15T04:34:44.788Z,95.45
2018-12-15T04:35:44.767Z,95.07
2018-12-15T04:36:44.747Z,95.17
2018-12-15T04:37:44.729Z,94.70
2018-12-15T04:38:44.713Z,93.94
2018-12-15T04:39:44.693Z,94.70
2018-12-15T04:40:44.674Z,99.71
2018-12-15T04:41:44.657Z,99.99
2018-12-15T04:42:44.638Z,99.71
2018-12-15T04:43:44.625Z,97.91
2018-12-15T04:44:44.601Z,97.63
2018-12-15T04:45:44.585Z,99.99
2018-12-15T04:46:44.565Z,99.43
2018-12-15T04:47:44.547Z,99.99
2018-12-15T04:48:44.531Z,98.58
2018-12-15T04:49:44.512Z,99.99
2018-12-15T04:50:44.493Z,99.71
2018-12-15T04:51:44.473Z,96.31
2018-12-15T04:52:44.470Z,93.85
2018-12-15T04:53:44.438Z,94.42
2018-12-15T04:54:44.419Z,94.60
2018-12-15T04:55:44.402Z,92.71
2018-12-15T04:56:44.382Z,92.43
2018-12-15T04:57:44.379Z,98.01
2018-12-15T04:58:44.348Z,97.53
2018-12-15T04:59:44.328Z,94.79
2018-12-15T05:00:44.310Z,92.90
2018-12-15T05:01:44.295Z,94.70
2018-12-15T05:02:44.356Z,94.04
2018-12-15T05:03:44.256Z,93.37
2018-12-15T05:05:44.223Z,94.04
2018-12-15T05:06:44.200Z,93.94
2018-12-15T05:07:44.182Z,94.70
2018-12-15T05:08:44.165Z,94.60
2018-12-15T05:09:44.147Z,94.89
2018-12-15T05:10:44.127Z,94.32
2018-12-15T05:11:44.110Z,96.12
2018-12-15T05:12:44.091Z,98.96
2018-12-15T05:13:44.073Z,99.99
2018-12-15T05:14:44.055Z,97.25
2018-12-15T05:15:44.036Z,95.55
2018-12-15T05:16:44.017Z,93.85
2018-12-15T05:17:44.001Z,93.56
2018-12-15T05:18:43.981Z,93.37
2018-12-15T05:19:43.961Z,93.56
2018-12-15T05:20:43.945Z,94.13
2018-12-15T05:21:43.927Z,93.56
2018-12-15T05:22:43.909Z,94.60
2018-12-15T05:23:43.889Z,94.42
2018-12-15T05:24:43.873Z,94.32
2018-12-15T05:25:43.853Z,93.42
2018-12-15T05:26:43.838Z,93.99
2018-12-15T05:27:43.816Z,94.74
2018-12-15T05:28:43.799Z,96.64
2018-12-15T05:29:43.783Z,98.10
2018-12-15T05:30:43.768Z,98.86
2018-12-15T05:31:43.741Z,95.17
2018-12-15T05:32:43.725Z,98.77
2018-12-15T05:33:43.704Z,95.36
2018-12-15T05:34:43.686Z,97.25
2018-12-15T05:35:43.669Z,96.59
2018-12-15T05:36:43.650Z,95.17
2018-12-15T05:37:43.632Z,96.02
2018-12-15T05:38:43.613Z,97.82
2018-12-15T05:39:43.595Z,97.91
2018-12-15T05:40:43.576Z,96.21
2018-12-15T05:41:43.559Z,95.17
2018-12-15T05:42:43.539Z,94.51
2018-12-15T05:43:43.519Z,95.59
2018-12-15T05:44:43.502Z,95.69
2018-12-15T05:45:43.485Z,96.97
2018-12-15T05:46:43.466Z,97.34
2018-12-15T05:47:43.446Z,97.16
2018-12-15T05:48:43.430Z,97.16
2018-12-15T05:49:43.412Z,95.03
2018-12-15T05:50:43.391Z,93.70
2018-12-15T05:51:43.372Z,94.46
2018-12-15T05:52:43.355Z,93.61
2018-12-15T05:53:43.336Z,94.18
2018-12-15T05:54:43.317Z,95.88
2018-12-15T05:55:43.302Z,95.74
2018-12-15T05:56:43.279Z,95.12
2018-12-15T05:57:43.263Z,95.31
2018-12-15T05:58:43.243Z,95.50
2018-12-15T05:59:43.227Z,94.93
2018-12-15T06:00:43.212Z,94.84
2018-12-15T06:01:43.191Z,94.93
2018-12-15T06:02:43.172Z,94.93
2018-12-15T06:03:43.156Z,95.88
2018-12-15T06:04:43.134Z,95.31
2018-12-15T06:05:43.114Z,95.31
2018-12-15T06:06:43.097Z,94.46
2018-12-15T06:07:43.078Z,94.37
2018-12-15T06:08:43.059Z,93.61
2018-12-15T06:09:43.042Z,95.97
2018-12-15T06:10:43.026Z,94.46
2018-12-15T06:11:43.003Z,94.56
2018-12-15T06:12:42.985Z,94.46
2018-12-15T06:13:42.966Z,93.70
2018-12-15T06:14:42.948Z,94.65
2018-12-15T06:15:42.930Z,94.27
2018-12-15T06:16:42.911Z,94.93
2018-12-15T06:17:42.893Z,94.65
2018-12-15T06:18:42.873Z,94.74
2018-12-15T06:19:42.854Z,94.56
2018-12-15T06:20:42.836Z,94.93
2018-12-15T06:21:42.817Z,95.50
2018-12-15T06:22:42.798Z,95.78
2018-12-15T06:23:42.781Z,95.40
2018-12-15T06:24:42.758Z,95.21
2018-12-15T06:25:42.742Z,95.69
2018-12-15T06:26:42.723Z,95.31
2018-12-15T06:27:42.704Z,95.03
2018-12-15T06:28:42.687Z,95.50
2018-12-15T06:29:42.666Z,95.21
2018-12-15T06:30:42.646Z,95.69
2018-12-15T06:31:42.628Z,95.97
2018-12-15T06:32:42.609Z,96.54
2018-12-15T06:33:42.591Z,95.78
2018-12-15T06:34:42.576Z,95.69
2018-12-15T06:35:42.552Z,96.83
2018-12-15T06:36:42.532Z,96.73
2018-12-15T06:37:42.515Z,98.14
2018-12-15T06:38:42.497Z,95.88
2018-12-15T06:39:42.477Z,96.35
2018-12-15T06:40:42.458Z,97.39
2018-12-15T06:41:42.437Z,97.39
2018-12-15T06:42:42.421Z,98.81
2018-12-15T06:43:42.400Z,97.77
2018-12-15T06:44:42.385Z,96.45
2018-12-15T06:45:42.362Z,97.67
2018-12-15T06:46:42.347Z,97.86
2018-12-15T06:47:42.326Z,96.92
2018-12-15T06:48:42.306Z,95.78
2018-12-15T06:49:42.286Z,95.59
2018-12-15T06:50:42.268Z,95.88
2018-12-15T06:51:42.248Z,95.31
2018-12-15T06:52:42.230Z,94.56
2018-12-15T06:53:42.212Z,94.56
2018-12-15T06:54:42.193Z,95.31
2018-12-15T06:55:42.173Z,95.50
2018-12-15T06:56:42.155Z,95.21
2018-12-15T06:57:42.137Z,95.69
2018-12-15T06:58:42.121Z,98.71
2018-12-15T06:59:42.097Z,97.86
2018-12-15T07:00:42.078Z,98.81
2018-12-15T07:01:42.059Z,97.49
2018-12-15T07:02:42.040Z,98.05
2018-12-15T07:03:42.022Z,97.01
2018-12-15T07:04:42.003Z,95.21
2018-12-15T07:05:41.985Z,95.31
2018-12-15T07:06:42.128Z,94.74
2018-12-15T07:07:41.948Z,95.03
2018-12-15T07:08:41.928Z,95.03
2018-12-15T07:09:41.910Z,94.93
2018-12-15T07:10:41.891Z,94.65
2018-12-15T07:11:41.871Z,94.74
2018-12-15T07:12:41.856Z,95.21
2018-12-15T07:13:41.836Z,95.21
2018-12-15T07:14:41.814Z,95.03
2018-12-15T07:15:41.796Z,95.21
2018-12-15T07:16:41.780Z,95.12
2018-12-15T07:17:41.758Z,94.84
2018-12-15T07:18:44.815Z,95.21
2018-12-15T07:19:41.719Z,97.01
2018-12-15T07:20:41.703Z,96.35
2018-12-15T07:21:41.681Z,95.59
2018-12-15T07:22:41.664Z,95.31
2018-12-15T07:23:41.643Z,95.03
2018-12-15T07:24:41.624Z,95.40
2018-12-15T07:25:41.605Z,95.50
2018-12-15T07:26:41.587Z,95.31
2018-12-15T07:27:41.568Z,95.12
2018-12-15T07:28:41.549Z,95.03
2018-12-15T07:29:41.530Z,95.78
2018-12-15T07:30:41.511Z,97.30
2018-12-15T07:31:41.491Z,96.16
2018-12-15T07:32:41.471Z,95.78
2018-12-15T07:33:41.456Z,96.16
2018-12-15T07:34:41.435Z,97.96
2018-12-15T07:35:41.414Z,96.73
2018-12-15T07:36:41.396Z,96.35
2018-12-15T07:37:41.377Z,95.97
2018-12-15T07:38:41.357Z,95.59
2018-12-15T07:39:41.339Z,96.16
2018-12-15T07:40:41.321Z,95.78
2018-12-15T07:41:41.303Z,95.88
2018-12-15T07:42:41.282Z,96.35
2018-12-15T07:43:41.264Z,95.97
2018-12-15T07:44:41.256Z,96.54
2018-12-15T07:45:41.227Z,96.16
2018-12-15T07:46:41.206Z,96.16
2018-12-15T07:47:41.186Z,96.26
2018-12-15T07:48:41.168Z,95.97
2018-12-15T07:49:41.150Z,96.16
2018-12-15T07:50:41.131Z,96.45
2018-12-15T07:51:41.110Z,96.35
2018-12-15T07:52:41.094Z,96.92
2018-12-15T07:53:41.074Z,97.58
2018-12-15T07:54:41.053Z,96.83
2018-12-15T07:55:41.034Z,96.16
2018-12-15T07:56:41.028Z,95.69
2018-12-15T07:57:40.995Z,96.07
2018-12-15T07:58:40.978Z,95.78
2018-12-15T07:59:40.957Z,96.07
2018-12-15T08:00:40.938Z,96.16
2018-12-15T08:01:40.922Z,96.07
2018-12-15T08:02:40.900Z,95.97
2018-12-15T08:03:40.882Z,95.69
2018-12-15T08:04:40.863Z,95.88
2018-12-15T08:05:40.842Z,95.69
2018-12-15T08:06:40.825Z,95.69
2018-12-15T08:07:40.804Z,96.35
2018-12-15T08:08:40.785Z,96.26
2018-12-15T08:09:40.772Z,96.45
2018-12-15T08:10:40.755Z,96.07
2018-12-15T08:11:40.725Z,96.07
2018-12-15T08:12:40.706Z,95.31
2018-12-15T08:13:40.688Z,95.40
2018-12-15T08:14:40.669Z,95.21
2018-12-15T08:15:40.651Z,95.40
2018-12-15T08:16:40.630Z,95.40
2018-12-15T08:17:40.611Z,95.40
2018-12-15T08:18:40.592Z,95.12
2018-12-15T08:19:40.572Z,95.78
2018-12-15T08:20:40.553Z,96.16
2018-12-15T08:21:40.539Z,96.35
2018-12-15T08:22:40.515Z,95.88
2018-12-15T08:23:40.495Z,94.93
2018-12-15T08:24:40.477Z,95.40
2018-12-15T08:25:40.456Z,95.12
2018-12-15T08:26:40.438Z,95.50
2018-12-15T08:27:40.417Z,95.88
2018-12-15T08:28:40.398Z,95.31
2018-12-15T08:29:40.380Z,95.03
2018-12-15T08:30:40.362Z,95.12
2018-12-15T08:31:40.341Z,94.56
2018-12-15T08:32:40.321Z,95.50
2018-12-15T08:33:40.305Z,94.93
2018-12-15T08:34:40.285Z,94.37
2018-12-15T08:35:40.265Z,94.65
2018-12-15T08:36:40.246Z,95.03
2018-12-15T08:37:40.228Z,96.45
2018-12-15T08:38:40.208Z,95.69
2018-12-15T08:39:40.187Z,94.74
2018-12-15T08:40:40.169Z,94.84
2018-12-15T08:41:40.151Z,93.99
2018-12-15T08:42:40.133Z,94.46
2018-12-15T08:43:40.110Z,94.93
2018-12-15T08:44:40.094Z,95.31
2018-12-15T08:45:40.074Z,94.46
2018-12-15T08:46:40.055Z,93.80
2018-12-15T08:47:40.036Z,94.65
2018-12-15T08:48:40.017Z,94.18
2018-12-15T08:49:39.999Z,94.37
2018-12-15T08:50:39.981Z,93.80
2018-12-15T08:51:39.961Z,93.32
2018-12-15T08:52:39.941Z,93.32
2018-12-15T08:53:39.921Z,94.74
2018-12-15T08:54:39.903Z,95.12
2018-12-15T08:55:39.884Z,94.18
2018-12-15T08:56:39.866Z,92.76
2018-12-15T08:57:39.846Z,92.66
2018-12-15T08:58:39.828Z,93.13
2018-12-15T08:59:39.809Z,93.13
2018-12-15T09:00:39.790Z,94.08
2018-12-15T09:01:39.771Z,93.61
2018-12-15T09:02:39.751Z,93.04
2018-12-15T09:03:39.733Z,92.66
2018-12-15T09:04:39.712Z,93.89
2018-12-15T09:05:39.694Z,94.74
2018-12-15T09:06:39.677Z,93.13
2018-12-15T09:07:39.656Z,92.94
2018-12-15T09:08:39.640Z,93.42
2018-12-15T09:09:39.622Z,93.51
2018-12-15T09:10:39.607Z,93.42
2018-12-15T09:11:39.585Z,92.85
2018-12-15T09:12:39.569Z,93.04
2018-12-15T09:13:39.545Z,92.57
2018-12-15T09:14:39.527Z,92.47
2018-12-15T09:15:39.510Z,92.10
2018-12-15T09:16:39.491Z,91.62
2018-12-15T09:17:39.472Z,91.34
2018-12-15T09:18:39.452Z,91.72
2018-12-15T09:19:39.432Z,91.91
2018-12-15T09:20:39.425Z,94.93
2018-12-15T09:21:39.396Z,93.70
2018-12-15T09:22:39.378Z,93.56
2018-12-15T09:23:39.357Z,92.52
2018-12-15T09:24:39.339Z,92.52
2018-12-15T09:25:39.321Z,91.96
2018-12-15T09:26:39.301Z,92.05
2018-12-15T09:27:39.283Z,92.33
2018-12-15T09:28:39.263Z,91.96
2018-12-15T09:29:39.246Z,91.39
2018-12-15T09:30:39.228Z,93.47
2018-12-15T09:31:39.210Z,93.94
2018-12-15T09:32:39.188Z,94.42
2018-12-15T09:33:39.172Z,95.83
2018-12-15T09:34:39.156Z,96.40
2018-12-15T09:35:39.133Z,94.51
2018-12-15T09:36:39.114Z,94.04
2018-12-15T09:37:39.099Z,96.40
2018-12-15T09:38:39.079Z,92.43
2018-12-15T09:39:39.062Z,92.05
2018-12-15T09:40:39.043Z,91.20
2018-12-15T09:41:39.022Z,91.29
2018-12-15T09:42:39.004Z,90.44
2018-12-15T09:43:38.985Z,92.90
2018-12-15T09:44:38.969Z,95.07
2018-12-15T09:45:38.950Z,97.25
2018-12-15T09:46:38.935Z,93.47
2018-12-15T09:47:38.917Z,97.53
2018-12-15T09:48:38.898Z,97.06
2018-12-15T09:49:38.878Z,99.99
2018-12-15T09:50:38.860Z,99.99
2018-12-15T09:51:38.839Z,99.48
2018-12-15T09:52:38.822Z,94.46
2018-12-15T09:53:38.804Z,92.94
2018-12-15T09:54:38.784Z,91.34
2018-12-15T09:55:38.772Z,93.04
2018-12-15T09:56:38.748Z,90.77
2018-12-15T09:57:38.731Z,88.87
2018-12-15T09:58:38.713Z,92.38
2018-12-15T09:59:38.699Z,90.86
2018-12-15T10:00:38.677Z,89.63
2018-12-15T10:01:38.656Z,88.87
2018-12-15T10:02:38.641Z,90.58
2018-12-15T10:03:38.622Z,91.72
2018-12-15T10:04:38.604Z,89.31
2018-12-15T10:05:38.587Z,86.85
2018-12-15T10:06:38.570Z,85.99
2018-12-15T10:07:38.550Z,85.99
2018-12-15T10:08:38.532Z,86.85
2018-12-15T10:09:38.517Z,86.85
2018-12-15T10:10:38.498Z,86.18
2018-12-15T10:11:38.480Z,87.60
2018-12-15T10:12:38.462Z,86.75
2018-12-15T10:13:38.445Z,85.52
2018-12-15T10:14:38.427Z,85.05
2018-12-15T10:15:38.408Z,86.85
2018-12-15T10:16:38.391Z,87.04
2018-12-15T10:17:38.371Z,86.56
2018-12-15T10:18:38.355Z,86.47
2018-12-15T10:19:38.336Z,87.13
2018-12-15T10:20:38.318Z,87.79
2018-12-15T10:21:38.300Z,87.32
2018-12-15T10:22:38.282Z,87.70
2018-12-15T10:23:38.263Z,87.13
2018-12-15T10:24:38.246Z,88.64
2018-12-15T10:25:38.228Z,90.06
2018-12-15T10:26:38.210Z,88.45
2018-12-15T10:27:38.192Z,87.79
2018-12-15T10:28:38.178Z,86.85
2018-12-15T10:29:38.158Z,87.04
2018-12-15T10:30:38.138Z,86.56
2018-12-15T10:31:38.119Z,86.94
2018-12-15T10:32:38.099Z,86.85
2018-12-15T10:33:38.083Z,88.45
2018-12-15T10:34:38.063Z,88.36
2018-12-15T10:35:38.046Z,88.83
2018-12-15T10:36:38.031Z,90.63
2018-12-15T10:37:38.009Z,88.93
2018-12-15T10:38:37.991Z,87.41
2018-12-15T10:39:37.971Z,88.17
2018-12-15T10:40:37.955Z,86.66
2018-12-15T10:41:37.937Z,86.66
2018-12-15T10:42:37.919Z,86.94
2018-12-15T10:43:37.904Z,86.85
2018-12-15T10:44:37.881Z,87.51
2018-12-15T10:45:37.865Z,86.47
2018-12-15T10:46:37.846Z,86.18
2018-12-15T10:47:37.828Z,86.18
2018-12-15T10:48:37.812Z,86.18
2018-12-15T10:49:37.793Z,86.09
2018-12-15T10:50:37.779Z,86.28
2018-12-15T10:51:37.756Z,85.80
2018-12-15T10:52:37.736Z,86.18
2018-12-15T10:53:37.720Z,86.66
2018-12-15T10:54:37.703Z,87.13
2018-12-15T10:55:37.685Z,86.94
2018-12-15T10:56:37.665Z,90.63
2018-12-15T10:57:37.646Z,91.39
2018-12-15T10:58:37.628Z,88.55
2018-12-15T10:59:37.609Z,91.10
2018-12-15T11:00:37.591Z,95.07
2018-12-15T11:01:37.573Z,91.39
2018-12-15T11:02:37.559Z,88.64
2018-12-15T11:03:37.537Z,87.17
2018-12-15T11:04:37.519Z,89.87
2018-12-15T11:05:37.501Z,86.66
2018-12-15T11:06:37.484Z,88.31
2018-12-15T11:07:37.464Z,89.31
2018-12-15T11:08:37.447Z,89.02
2018-12-15T11:09:37.435Z,92.10
2018-12-15T11:10:37.413Z,88.97
2018-12-15T11:11:37.392Z,85.47
2018-12-15T11:12:37.378Z,85.42
2018-12-15T11:13:37.357Z,85.05
2018-12-15T11:14:37.338Z,85.99
2018-12-15T11:15:37.320Z,85.52
2018-12-15T11:16:37.302Z,85.33
2018-12-15T11:17:37.287Z,85.33
2018-12-15T11:18:37.267Z,85.61
2018-12-15T11:19:37.401Z,85.99
2018-12-15T11:20:37.231Z,85.90
2018-12-15T11:21:37.215Z,85.90
2018-12-15T11:22:37.195Z,85.99
2018-12-15T11:23:37.177Z,87.79
2018-12-15T11:24:37.158Z,87.13
2018-12-15T11:25:37.141Z,87.98
2018-12-15T11:26:37.122Z,90.16
2018-12-15T11:27:37.103Z,87.60
2018-12-15T11:28:37.086Z,86.75
2018-12-15T11:29:37.069Z,86.37
2018-12-15T11:30:37.051Z,87.13
2018-12-15T11:31:37.030Z,86.75
2018-12-15T11:32:37.014Z,85.90
2018-12-15T11:33:36.995Z,87.79
2018-12-15T11:34:36.980Z,87.23
2018-12-15T11:35:36.963Z,87.23
2018-12-15T11:36:36.943Z,86.28
2018-12-15T11:37:36.924Z,85.90
2018-12-15T11:38:36.906Z,86.66
2018-12-15T11:39:36.888Z,85.90
2018-12-15T11:40:36.871Z,85.80
2018-12-15T11:41:36.855Z,85.33
2018-12-15T11:42:36.836Z,85.52
2018-12-15T11:43:36.815Z,88.55
2018-12-15T11:44:36.798Z,86.66
2018-12-15T11:45:36.779Z,86.66
2018-12-15T11:46:36.762Z,86.18
2018-12-15T11:47:36.745Z,86.09
2018-12-15T11:48:36.728Z,85.90
2018-12-15T11:49:36.708Z,86.09
2018-12-15T11:50:36.690Z,88.45
2018-12-15T11:51:36.672Z,86.28
2018-12-15T11:52:36.654Z,85.52
2018-12-15T11:53:36.634Z,85.52
2018-12-15T11:54:36.620Z,86.18
2018-12-15T11:55:36.600Z,87.74
2018-12-15T11:56:36.584Z,91.91
2018-12-15T11:57:36.562Z,91.72
2018-12-15T11:58:36.547Z,86.89
2018-12-15T11:59:36.529Z,86.70
2018-12-15T12:00:36.511Z,88.02
2018-12-15T12:01:36.498Z,86.79
2018-12-15T12:02:36.474Z,85.94
2018-12-15T12:03:36.456Z,89.92
2018-12-15T12:04:36.438Z,90.58
2018-12-15T12:05:36.421Z,89.35
2018-12-15T12:06:36.407Z,90.96
2018-12-15T12:07:36.387Z,94.18
2018-12-15T12:08:36.366Z,89.16
2018-12-15T12:09:36.352Z,86.41
2018-12-15T12:10:36.335Z,90.77
2018-12-15T12:11:36.313Z,88.21
2018-12-15T12:12:36.298Z,87.46
2018-12-15T12:13:36.280Z,89.44
2018-12-15T12:14:36.260Z,88.17
2018-12-15T12:15:36.243Z,90.72
2018-12-15T12:16:36.226Z,90.34
2018-12-15T12:17:36.207Z,87.88
2018-12-15T12:18:36.190Z,85.04
2018-12-15T12:19:36.170Z,84.90
2018-12-15T12:20:36.152Z,83.01
2018-12-15T12:21:36.137Z,82.44
2018-12-15T12:22:36.119Z,82.91
2018-12-15T12:23:36.100Z,82.72
2018-12-15T12:24:36.087Z,82.72
2018-12-15T12:25:36.066Z,82.82
2018-12-15T12:26:36.053Z,83.48
2018-12-15T12:27:36.030Z,83.10
2018-12-15T12:28:36.012Z,83.20
2018-12-15T12:29:35.996Z,84.20
2018-12-15T12:30:35.977Z,84.39
2018-12-15T12:31:35.958Z,84.58
2018-12-15T12:32:35.942Z,84.39
2018-12-15T12:33:35.922Z,84.67
2018-12-15T12:34:35.905Z,84.77
2018-12-15T12:35:35.888Z,86.28
2018-12-15T12:36:35.869Z,86.47
2018-12-15T12:37:35.857Z,85.42
2018-12-15T12:38:35.834Z,86.18
2018-12-15T12:39:35.819Z,86.70
2018-12-15T12:40:35.801Z,85.94
2018-12-15T12:41:35.782Z,85.28
2018-12-15T12:42:35.763Z,84.58
2018-12-15T12:43:35.744Z,84.29
2018-12-15T12:44:35.729Z,85.75
2018-12-15T12:45:35.714Z,85.28
2018-12-15T12:46:35.694Z,85.57
2018-12-15T12:47:35.675Z,87.79
2018-12-15T12:48:35.657Z,88.36
2018-12-15T12:49:35.638Z,87.27
2018-12-15T12:50:35.622Z,86.51
2018-12-15T12:51:35.604Z,85.19
2018-12-15T12:52:35.589Z,84.77
2018-12-15T12:53:35.569Z,84.42